Tarrant, Alabama
Current Conditions -  °F | °C
As of 1:53 PM on Thursday 23 Oct 2014 (Local Time) from KBHM Reporting Station
Broken Clouds Broken Clouds  
Wind Chill: 70°   Ceiling: 25000
Heat Index: 70°   Visibility: 10mi
Dew Point: 38°   Wind: 6mph
Humidity: 31%   Direction: 10°N
Pressure: 30.11"   Gusts: NA
Location:  33.605°N, 86.7592°W
Report Text: KBHM 231853Z 01005KT 10SM BKN250 21/03 A3011 RMK AO2 SLP191 T02110033
Loading
Personal Weather Stations






























Interactive Weather Map New forecast layout! Learn more

10-Day Weather Forecast

Advertisements
Track Severe Weather on mobile